Driftmaster — AEJH — position and weather

sailwx.info

Track history (hours):
 
Tides and Currents Weather Stations Pressure Air Temp Water Temp Dewpoint Dewpoint Depression Visibility Wind Speed Wind Dir Waves Ship Positions

Driftmaster

Last reported at 2018-Aug-14 19:16 UTC. Time now 2018-Aug-14 23:45 UTC.
Position N 40°41' W 074°04'.

Length 30 m; draft 3 m.

MMSI: 366999411.

Date/timePositionNaut miles runAvg speedWind from/ knotsBaromVisibWave heightAir tempDewpointWater temp
2018-Aug-14 19:16N 40°41' W 074°04'0 0.5
2018-Aug-14 19:00N 40°41' W 074°04'2 3.5
2018-Aug-14 18:30N 40°40' W 074°03'2 3.4
2018-Aug-14 18:00N 40°38' W 074°03'2 3.5
2018-Aug-14 17:29N 40°36' W 074°02'2 3.1
2018-Aug-14 17:00N 40°37' W 074°03'2 4.5
2018-Aug-14 16:30N 40°40' W 074°03'2 3.8
2018-Aug-14 16:00N 40°41' W 074°04'0 0.1
2018-Aug-14 15:30N 40°41' W 074°04'0 0.0
2018-Aug-14 15:00N 40°41' W 074°04'0 0.0
2018-Aug-14 14:30N 40°41' W 074°04'0 0.0
2018-Aug-14 14:00N 40°41' W 074°04'0 0.0
2018-Aug-14 13:30N 40°41' W 074°04'0 0.0
2018-Aug-14 13:00N 40°41' W 074°04'0 0.0
2018-Aug-14 12:30N 40°41' W 074°04'0 0.0
2018-Aug-13 19:16N 40°41' W 074°04'0 0.1
2018-Aug-13 19:00N 40°41' W 074°04'1 2.2
2018-Aug-13 18:30N 40°40' W 074°04'1 1.2
2018-Aug-13 18:00N 40°40' W 074°03'1 2.5
2018-Aug-13 17:30N 40°40' W 074°01'2 4.1
2018-Aug-13 17:00N 40°42' W 074°02'2 3.6
2018-Aug-13 16:30N 40°44' W 074°02'0 0.0
2018-Aug-13 15:58N 40°44' W 074°02'0 0.0
2018-Aug-13 15:30N 40°44' W 074°02'2 4.6
2018-Aug-13 15:00N 40°42' W 074°02'2 4.5
2018-Aug-13 14:30N 40°40' W 074°00'0 0.3
2018-Aug-13 14:00N 40°40' W 074°00'1 1.8
2018-Aug-13 13:30N 40°40' W 074°01'2 4.5
2018-Aug-13 13:00N 40°41' W 074°04'0 0.1
2018-Aug-13 12:30N 40°41' W 074°04'1 0.0
2018-Aug-11 18:55N 40°41' W 074°04'0 0.0
2018-Aug-11 18:31N 40°41' W 074°04'1 2.7
2018-Aug-11 18:01N 40°40' W 074°03'3 5.9
2018-Aug-11 17:31N 40°43' W 074°02'1 1.4
2018-Aug-11 16:53N 40°44' W 074°02'0 0.0
2018-Aug-11 16:27N 40°44' W 074°02'0 0.0
2018-Aug-11 15:54N 40°44' W 074°02'1 1.5
2018-Aug-11 15:30N 40°45' W 074°01'0 0.6
2018-Aug-11 15:00N 40°45' W 074°01'1 2.6
2018-Aug-11 14:30N 40°44' W 074°02'0 0.4
2018-Aug-11 14:00N 40°44' W 074°01'2 3.5
2018-Aug-11 13:30N 40°42' W 074°02'2 4.2
2018-Aug-11 13:01N 40°41' W 074°04'0 0.8
2018-Aug-11 12:30N 40°41' W 074°04'0 0.0
2018-Aug-10 19:31N 40°41' W 074°04'0 0.4
2018-Aug-10 19:31N 40°41' W 074°04'0 0.3
2018-Aug-10 19:01N 40°41' W 074°04'1 2.2
2018-Aug-10 18:30N 40°41' W 074°03'4 7.4
2018-Aug-10 18:00N 40°44' W 074°01'0 0.3
2018-Aug-10 17:30N 40°44' W 074°01'0 0.5
2018-Aug-10 16:49N 40°44' W 074°02'0 0.0
2018-Aug-10 16:29N 40°44' W 074°02'0 0.0
2018-Aug-10 15:55N 40°44' W 074°02'0 0.0
2018-Aug-10 15:31N 40°44' W 074°02'2 3.2
2018-Aug-10 15:01N 40°43' W 074°02'2 3.8
2018-Aug-10 14:31N 40°41' W 074°03'1 1.9
2018-Aug-10 14:01N 40°40' W 074°02'2 3.2
2018-Aug-10 13:30N 40°38' W 074°03'1 2.1
2018-Aug-10 13:00N 40°39' W 074°03'2 4.2
2018-Aug-10 12:30N 40°41' W 074°04'0 0.0
2018-Aug-09 19:19N 40°41' W 074°04'0 1.6
2018-Aug-09 19:00N 40°41' W 074°04'0 0.4
2018-Aug-09 18:31N 40°41' W 074°04'2 3.4
2018-Aug-09 18:00N 40°42' W 074°02'3 6.9
2018-Aug-09 17:30N 40°45' W 074°01'1 1.7
2018-Aug-09 17:00N 40°44' W 074°01'0 0.8
2018-Aug-09 16:30N 40°44' W 074°02'0 0.0
2018-Aug-09 16:00N 40°44' W 074°02'0 0.0
2018-Aug-09 15:29N 40°44' W 074°02'0 0.0
2018-Aug-09 15:00N 40°44' W 074°02'0 1.0
2018-Aug-09 14:31N 40°44' W 074°01'2 4.0
2018-Aug-09 14:00N 40°42' W 074°02'2 4.2
2018-Aug-09 13:30N 40°40' W 074°01'0 0.9
2018-Aug-09 13:01N 40°40' W 074°01'2 4.8
2018-Aug-09 12:30N 40°41' W 074°04'0 0.8
2018-Aug-09 12:00N 40°41' W 074°04'  
2018-Aug-06 19:00N 40°41' W 074°04'0 0.9
2018-Aug-06 18:30N 40°41' W 074°04'0 0.0
2018-Aug-06 18:00N 40°41' W 074°04'1 1.9
2018-Aug-06 17:30N 40°41' W 074°03'3 5.7
2018-Aug-06 17:00N 40°44' W 074°02'1 1.1
2018-Aug-06 16:27N 40°44' W 074°02'0 0.2
2018-Aug-06 15:36N 40°44' W 074°01'0 3.2
2018-Aug-06 15:30N 40°44' W 074°01'1 2.3
2018-Aug-06 15:00N 40°43' W 074°01'1 2.3
2018-Aug-06 14:28N 40°41' W 074°01'1 2.2
2018-Aug-06 13:57N 40°40' W 074°01'2 4.3
2018-Aug-06 13:29N 40°38' W 074°02'2 2.9
2018-Aug-06 12:55N 40°37' W 074°03'1 2.1
2018-Aug-06 12:20N 40°38' W 074°03'2 6.3
2018-Aug-06 12:00N 40°40' W 074°03'  
Track history (hours):
 
Tides and Currents Weather Stations Pressure Air Temp Water Temp Dewpoint Dewpoint Depression Visibility Wind Speed Wind Dir Waves Ship Positions

Driftmaster

Last reported at 2018-Aug-14 19:16 UTC. Time now 2018-Aug-14 23:45 UTC.
Position N 40°41' W 074°04'.

Length 30 m; draft 3 m.

MMSI: 366999411.

Date/timePositionNaut miles runAvg speedWind from/ knotsBaromVisibWave heightAir tempDewpointWater temp
2018-Aug-14 19:16N 40°41' W 074°04'0 0.5
2018-Aug-14 19:00N 40°41' W 074°04'2 3.5
2018-Aug-14 18:30N 40°40' W 074°03'2 3.4
2018-Aug-14 18:00N 40°38' W 074°03'2 3.5
2018-Aug-14 17:29N 40°36' W 074°02'2 3.1
2018-Aug-14 17:00N 40°37' W 074°03'2 4.5
2018-Aug-14 16:30N 40°40' W 074°03'2 3.8
2018-Aug-14 16:00N 40°41' W 074°04'0 0.1
2018-Aug-14 15:30N 40°41' W 074°04'0 0.0
2018-Aug-14 15:00N 40°41' W 074°04'0 0.0
2018-Aug-14 14:30N 40°41' W 074°04'0 0.0
2018-Aug-14 14:00N 40°41' W 074°04'0 0.0
2018-Aug-14 13:30N 40°41' W 074°04'0 0.0
2018-Aug-14 13:00N 40°41' W 074°04'0 0.0
2018-Aug-14 12:30N 40°41' W 074°04'0 0.0
2018-Aug-13 19:16N 40°41' W 074°04'0 0.1
2018-Aug-13 19:00N 40°41' W 074°04'1 2.2
2018-Aug-13 18:30N 40°40' W 074°04'1 1.2
2018-Aug-13 18:00N 40°40' W 074°03'1 2.5
2018-Aug-13 17:30N 40°40' W 074°01'2 4.1
2018-Aug-13 17:00N 40°42' W 074°02'2 3.6
2018-Aug-13 16:30N 40°44' W 074°02'0 0.0
2018-Aug-13 15:58N 40°44' W 074°02'0 0.0
2018-Aug-13 15:30N 40°44' W 074°02'2 4.6
2018-Aug-13 15:00N 40°42' W 074°02'2 4.5
2018-Aug-13 14:30N 40°40' W 074°00'0 0.3
2018-Aug-13 14:00N 40°40' W 074°00'1 1.8
2018-Aug-13 13:30N 40°40' W 074°01'2 4.5
2018-Aug-13 13:00N 40°41' W 074°04'0 0.1
2018-Aug-13 12:30N 40°41' W 074°04'1 0.0
2018-Aug-11 18:55N 40°41' W 074°04'0 0.0
2018-Aug-11 18:31N 40°41' W 074°04'1 2.7
2018-Aug-11 18:01N 40°40' W 074°03'3 5.9
2018-Aug-11 17:31N 40°43' W 074°02'1 1.4
2018-Aug-11 16:53N 40°44' W 074°02'0 0.0
2018-Aug-11 16:27N 40°44' W 074°02'0 0.0
2018-Aug-11 15:54N 40°44' W 074°02'1 1.5
2018-Aug-11 15:30N 40°45' W 074°01'0 0.6
2018-Aug-11 15:00N 40°45' W 074°01'1 2.6
2018-Aug-11 14:30N 40°44' W 074°02'0 0.4
2018-Aug-11 14:00N 40°44' W 074°01'2 3.5
2018-Aug-11 13:30N 40°42' W 074°02'2 4.2
2018-Aug-11 13:01N 40°41' W 074°04'0 0.8
2018-Aug-11 12:30N 40°41' W 074°04'0 0.0
2018-Aug-10 19:31N 40°41' W 074°04'0 0.4
2018-Aug-10 19:31N 40°41' W 074°04'0 0.3
2018-Aug-10 19:01N 40°41' W 074°04'1 2.2
2018-Aug-10 18:30N 40°41' W 074°03'4 7.4
2018-Aug-10 18:00N 40°44' W 074°01'0 0.3
2018-Aug-10 17:30N 40°44' W 074°01'0 0.5
2018-Aug-10 16:49N 40°44' W 074°02'0 0.0
2018-Aug-10 16:29N 40°44' W 074°02'0 0.0
2018-Aug-10 15:55N 40°44' W 074°02'0 0.0
2018-Aug-10 15:31N 40°44' W 074°02'2 3.2
2018-Aug-10 15:01N 40°43' W 074°02'2 3.8
2018-Aug-10 14:31N 40°41' W 074°03'1 1.9
2018-Aug-10 14:01N 40°40' W 074°02'2 3.2
2018-Aug-10 13:30N 40°38' W 074°03'1 2.1
2018-Aug-10 13:00N 40°39' W 074°03'2 4.2
2018-Aug-10 12:30N 40°41' W 074°04'0 0.0
2018-Aug-09 19:19N 40°41' W 074°04'0 1.6
2018-Aug-09 19:00N 40°41' W 074°04'0 0.4
2018-Aug-09 18:31N 40°41' W 074°04'2 3.4
2018-Aug-09 18:00N 40°42' W 074°02'3 6.9
2018-Aug-09 17:30N 40°45' W 074°01'1 1.7
2018-Aug-09 17:00N 40°44' W 074°01'0 0.8
2018-Aug-09 16:30N 40°44' W 074°02'0 0.0
2018-Aug-09 16:00N 40°44' W 074°02'0 0.0
2018-Aug-09 15:29N 40°44' W 074°02'0 0.0
2018-Aug-09 15:00N 40°44' W 074°02'0 1.0
2018-Aug-09 14:31N 40°44' W 074°01'2 4.0
2018-Aug-09 14:00N 40°42' W 074°02'2 4.2
2018-Aug-09 13:30N 40°40' W 074°01'0 0.9
2018-Aug-09 13:01N 40°40' W 074°01'2 4.8
2018-Aug-09 12:30N 40°41' W 074°04'0 0.8
2018-Aug-09 12:00N 40°41' W 074°04'  
2018-Aug-06 19:00N 40°41' W 074°04'0 0.9
2018-Aug-06 18:30N 40°41' W 074°04'0 0.0
2018-Aug-06 18:00N 40°41' W 074°04'1 1.9
2018-Aug-06 17:30N 40°41' W 074°03'3 5.7
2018-Aug-06 17:00N 40°44' W 074°02'1 1.1
2018-Aug-06 16:27N 40°44' W 074°02'0 0.2
2018-Aug-06 15:36N 40°44' W 074°01'0 3.2
2018-Aug-06 15:30N 40°44' W 074°01'1 2.3
2018-Aug-06 15:00N 40°43' W 074°01'1 2.3
2018-Aug-06 14:28N 40°41' W 074°01'1 2.2
2018-Aug-06 13:57N 40°40' W 074°01'2 4.3
2018-Aug-06 13:29N 40°38' W 074°02'2 2.9
2018-Aug-06 12:55N 40°37' W 074°03'1 2.1
2018-Aug-06 12:20N 40°38' W 074°03'2 6.3
2018-Aug-06 12:00N 40°40' W 074°03'  

Dump ship's entire track history